Terminal Aerodrome Forecast
Issued by NWS Twin Cities, MN

Home | Current Version | Previous Version | Text Only | Print | Product List | Glossary Off
Versions: 1 2 3 4 5 6 7 8 9 10 11 12 13 14 15

000
FTUS43 KMPX 142300
TAFSTC
TAF
KSTC 142335Z 1500/1524 16006KT 0SM FG VV002
     FM150700 25005KT 1/4SM FG VV002
     FM151200 34006KT 1/2SM FG VCSH VV002
     FM151700 35012KT 3/4SM RA BR OVC005
     FM152200 35013G22KT 3/4SM RAPLSN OVC005=

USA.gov is the U.S. government's official web portal to all federal, state and local government web resources and services.